Time;durP1;ratioP1;P1;durP2;ratioP2;P2;SDS_P1;SDS_P2;PMS_P1;PMS_P2;Temp;Humidity;BMP_temperature;BMP_pressure;BME280_temperature;BME280_humidity;BME280_pressure;Samples;Min_cycle;Max_cycle;Signal;HPM_P1;HPM_P2
2023/09/27 00:00:15;;;;;;;7.82;3.00;;;;;;;18.99;50.24;95321.53;5070092;28;20118;-79
2023/09/27 00:02:43;;;;;;;8.38;3.63;;;;;;;18.98;50.17;95316.44;5087597;28;20084;-79
2023/09/27 00:05:10;;;;;;;7.25;3.05;;;;;;;18.99;50.22;95318.75;5088379;28;20470;-79
2023/09/27 00:07:40;;;;;;;8.25;2.92;;;;;;;18.93;50.30;95314.34;5070802;28;20081;-78
2023/09/27 00:10:09;;;;;;;5.88;2.85;;;;;;;18.87;50.24;95305.09;5086958;28;20596;-78
2023/09/27 00:12:35;;;;;;;4.70;2.92;;;;;;;18.89;50.39;95310.97;5087412;28;20016;-78
2023/09/27 00:15:05;;;;;;;6.90;2.90;;;;;;;18.89;50.58;95322.88;5087074;28;20024;-79
2023/09/27 00:17:31;;;;;;;8.27;2.92;;;;;;;18.83;50.38;95317.22;5086814;28;20059;-79
2023/09/27 00:19:57;;;;;;;8.57;3.10;;;;;;;18.81;50.41;95311.38;5087504;28;20059;-80
2023/09/27 00:22:24;;;;;;;9.25;2.80;;;;;;;18.78;50.51;95306.75;5086344;28;20043;-79
2023/09/27 00:24:50;;;;;;;10.90;3.35;;;;;;;18.71;50.83;95303.63;5087358;28;20043;-79
2023/09/27 00:27:16;;;;;;;9.55;3.55;;;;;;;18.68;51.01;95301.78;5086289;28;20044;-79
2023/09/27 00:29:41;;;;;;;8.88;3.28;;;;;;;18.65;51.13;95294.38;5087689;28;20035;-79
2023/09/27 00:32:07;;;;;;;9.68;3.10;;;;;;;18.66;51.51;95302.22;5088041;28;20108;-79
2023/09/27 00:34:32;;;;;;;8.90;3.00;;;;;;;18.61;51.51;95296.56;5088042;28;20074;-77
2023/09/27 00:36:57;;;;;;;8.52;3.20;;;;;;;18.63;51.51;95297.63;5070274;28;20027;-78
2023/09/27 00:39:24;;;;;;;9.50;3.22;;;;;;;18.61;51.74;95293.78;5086250;28;20077;-78
2023/09/27 00:41:49;;;;;;;6.68;2.58;;;;;;;18.59;51.83;95288.72;5086490;28;20460;-80
2023/09/27 00:44:14;;;;;;;10.45;3.30;;;;;;;18.58;52.08;95289.97;5085852;28;20038;-78
2023/09/27 00:46:40;;;;;;;8.23;2.95;;;;;;;18.59;51.90;95291.50;5069562;28;20024;-79
2023/09/27 00:49:05;;;;;;;10.13;3.25;;;;;;;18.60;52.02;95297.81;5069427;28;21922;-79
2023/09/27 00:51:31;;;;;;;11.82;4.18;;;;;;;18.54;52.68;95298.50;5069700;28;20542;-79
2023/09/27 00:53:58;;;;;;;5.78;3.08;;;;;;;18.56;52.41;95298.00;5086186;28;20455;-80
2023/09/27 00:56:24;;;;;;;6.25;2.75;;;;;;;18.52;52.78;95295.44;5069257;28;20032;-80
2023/09/27 00:58:50;;;;;;;11.70;3.40;;;;;;;18.56;52.93;95298.00;5069184;28;20024;-80
2023/09/27 01:01:15;;;;;;;9.40;2.90;;;;;;;18.52;53.25;95298.22;5085844;28;20563;-79
2023/09/27 01:03:41;;;;;;;8.05;3.50;;;;;;;18.50;53.60;95291.59;5086304;28;20028;-78
2023/09/27 01:06:08;;;;;;;6.50;3.13;;;;;;;18.55;53.54;95299.25;5085777;28;20089;-78
2023/09/27 01:08:33;;;;;;;9.63;3.03;;;;;;;18.46;53.86;95293.78;5069621;28;20077;-80
2023/09/27 01:10:59;;;;;;;6.30;3.00;;;;;;;18.46;53.89;95291.75;5069080;28;20024;-80
2023/09/27 01:13:25;;;;;;;8.55;3.20;;;;;;;18.45;54.08;95295.03;5085947;28;20582;-79
2023/09/27 01:15:50;;;;;;;7.97;3.22;;;;;;;18.42;54.09;95294.00;5069319;28;20495;-80
2023/09/27 01:18:16;;;;;;;10.30;3.75;;;;;;;18.41;54.28;95297.22;5085900;28;20030;-79
2023/09/27 01:20:41;;;;;;;7.68;3.50;;;;;;;18.43;54.23;95297.53;5087461;28;20039;-80
2023/09/27 01:23:07;;;;;;;10.27;3.40;;;;;;;18.38;54.33;95292.63;5085316;28;20027;-80
2023/09/27 01:25:37;;;;;;;8.43;3.35;;;;;;;18.31;54.49;95280.66;5068966;28;20039;-80
2023/09/27 01:28:07;;;;;;;7.05;3.42;;;;;;;18.33;54.67;95296.84;5068440;28;20052;-80
2023/09/27 01:30:33;;;;;;;8.80;3.58;;;;;;;18.35;54.80;95294.38;5068895;28;20090;-80
2023/09/27 01:33:05;;;;;;;9.05;3.60;;;;;;;18.40;54.57;95293.69;5085752;28;20738;-79
2023/09/27 01:35:41;;;;;;;12.07;3.55;;;;;;;18.40;54.47;95296.47;5068452;28;20031;-80
2023/09/27 01:38:07;;;;;;;10.63;3.70;;;;;;;18.28;54.63;95295.50;5068696;28;20081;-80
2023/09/27 01:40:37;;;;;;;8.32;3.30;;;;;;;18.28;55.09;95306.63;5084814;28;20028;-81
2023/09/27 01:43:03;;;;;;;8.73;4.00;;;;;;;18.27;55.13;95301.56;5085584;28;20505;-78
2023/09/27 01:45:30;;;;;;;11.18;3.72;;;;;;;18.22;55.39;95308.56;5086354;28;20020;-79
2023/09/27 01:47:56;;;;;;;7.60;3.75;;;;;;;18.19;55.37;95298.38;5068663;28;20028;-79
2023/09/27 01:50:24;;;;;;;9.00;3.25;;;;;;;18.26;54.88;95300.78;5085428;28;20028;-80
2023/09/27 01:52:53;;;;;;;6.18;3.45;;;;;;;18.17;55.34;95303.66;5068218;28;20032;-79
2023/09/27 01:55:19;;;;;;;11.05;3.33;;;;;;;18.15;55.17;95297.81;5068420;28;20020;-78
2023/09/27 01:57:47;;;;;;;6.30;3.47;;;;;;;18.11;55.24;95299.22;5067472;28;20051;-79
2023/09/27 02:00:14;;;;;;;7.45;3.53;;;;;;;18.13;55.12;95300.31;5085309;28;20048;-79
2023/09/27 02:02:55;;;;;;;7.95;3.08;;;;;;;18.12;55.08;95296.00;5084258;28;20028;-80
2023/09/27 02:05:21;;;;;;;9.70;3.70;;;;;;;18.04;55.06;95292.03;5069010;28;20028;-78
2023/09/27 02:07:46;;;;;;;12.10;3.53;;;;;;;18.04;55.28;95289.25;5083848;28;20094;-80
2023/09/27 02:10:12;;;;;;;6.53;3.05;;;;;;;18.02;55.44;95289.72;5084731;28;20039;-78
2023/09/27 02:12:38;;;;;;;9.10;3.08;;;;;;;18.03;55.13;95290.50;5084939;28;20042;-80
2023/09/27 02:15:05;;;;;;;9.48;3.40;;;;;;;17.98;55.19;95289.16;5084652;28;20027;-80
2023/09/27 02:17:30;;;;;;;8.77;3.15;;;;;;;17.96;55.15;95286.09;5086882;28;20020;-79
2023/09/27 02:19:56;;;;;;;7.95;3.30;;;;;;;17.96;55.23;95288.09;5067504;28;20453;-78
2023/09/27 02:22:22;;;;;;;7.88;3.35;;;;;;;17.93;55.28;95284.25;5068201;28;20039;-79
2023/09/27 02:24:48;;;;;;;7.43;3.33;;;;;;;17.89;55.58;95291.22;5084639;28;20028;-79
2023/09/27 02:27:14;;;;;;;6.43;3.25;;;;;;;17.90;55.60;95281.66;5085888;28;22045;-80
2023/09/27 02:29:42;;;;;;;5.15;2.80;;;;;;;17.91;55.66;95292.31;5084722;28;20027;-81
2023/09/27 02:32:08;;;;;;;5.78;3.28;;;;;;;17.87;55.44;95288.16;5067410;28;20107;-79
2023/09/27 02:34:34;;;;;;;6.72;3.30;;;;;;;17.85;55.42;95291.44;5068174;28;20115;-79
2023/09/27 02:37:00;;;;;;;9.02;3.65;;;;;;;17.88;55.64;95289.69;5067030;28;20028;-80
2023/09/27 02:39:25;;;;;;;4.80;3.17;;;;;;;17.88;55.36;95284.13;5085781;28;20073;-80
2023/09/27 02:41:51;;;;;;;11.75;3.65;;;;;;;17.85;55.39;95287.88;5067158;28;20024;-80
2023/09/27 02:44:16;;;;;;;8.13;3.50;;;;;;;17.77;55.58;95287.47;5067738;28;20513;-80
2023/09/27 02:46:45;;;;;;;7.20;3.20;;;;;;;17.78;55.44;95289.78;5067526;28;20027;-79
2023/09/27 02:49:10;;;;;;;7.63;3.97;;;;;;;17.79;55.48;95301.66;5084353;28;20021;-77
2023/09/27 02:51:37;;;;;;;6.40;3.47;;;;;;;17.75;55.34;95299.06;5083920;28;20024;-80
2023/09/27 02:54:02;;;;;;;6.70;3.45;;;;;;;17.75;55.38;95295.53;5084294;28;20028;-78
2023/09/27 02:56:28;;;;;;;6.03;3.05;;;;;;;17.72;55.47;95300.03;5067752;28;20021;-80
2023/09/27 02:58:53;;;;;;;6.28;3.42;;;;;;;17.72;55.38;95310.34;5066853;28;20073;-80
2023/09/27 03:01:19;;;;;;;10.93;4.00;;;;;;;17.72;55.27;95310.34;5084573;28;20525;-80
2023/09/27 03:03:44;;;;;;;6.97;3.65;;;;;;;17.69;55.06;95312.06;5066978;28;20021;-79
2023/09/27 03:06:14;;;;;;;7.93;3.70;;;;;;;17.66;55.13;95299.13;5084202;28;20097;-79
2023/09/27 03:08:40;;;;;;;8.07;3.72;;;;;;;17.66;55.17;95295.53;5084396;28;20016;-80
2023/09/27 03:11:06;;;;;;;12.80;4.38;;;;;;;17.59;55.35;95293.91;5083609;28;20400;-79
2023/09/27 03:13:36;;;;;;;8.88;3.50;;;;;;;17.68;54.97;95304.97;5067478;28;20028;-80
2023/09/27 03:16:01;;;;;;;6.75;3.72;;;;;;;17.73;54.54;95312.69;5067396;28;20616;-80
2023/09/27 03:18:27;;;;;;;10.10;3.35;;;;;;;17.69;54.69;95308.50;5086068;28;20099;-80
2023/09/27 03:20:52;;;;;;;10.65;3.85;;;;;;;17.73;54.08;95312.69;5067270;28;20569;-79
2023/09/27 03:23:17;;;;;;;10.93;4.95;;;;;;;17.66;54.70;95312.22;5067232;28;20032;-80
2023/09/27 03:25:43;;;;;;;10.95;4.00;;;;;;;17.67;54.42;95297.09;5067485;28;20032;-80
2023/09/27 03:28:08;;;;;;;8.13;4.05;;;;;;;17.67;54.76;95308.22;5066441;28;20054;-79
2023/09/27 03:30:34;;;;;;;6.53;4.28;;;;;;;17.59;54.63;95307.81;5084053;28;20038;-80
2023/09/27 03:32:59;;;;;;;12.52;3.95;;;;;;;17.58;54.71;95311.06;5066602;28;20085;-80
2023/09/27 03:35:25;;;;;;;7.93;4.03;;;;;;;17.55;55.15;95312.00;5084155;28;20028;-81
2023/09/27 03:37:50;;;;;;;9.68;4.93;;;;;;;17.51;55.08;95312.97;5083409;28;20020;-80
2023/09/27 03:40:16;;;;;;;5.72;4.03;;;;;;;17.43;54.96;95309.00;5084155;28;20024;-78
2023/09/27 03:42:43;;;;;;;8.40;4.03;;;;;;;17.51;54.98;95312.19;5083297;28;20058;-78
2023/09/27 03:45:09;;;;;;;7.72;4.22;;;;;;;17.53;54.93;95320.81;5083577;28;20089;-80
2023/09/27 03:47:35;;;;;;;9.00;3.70;;;;;;;17.50;55.03;95313.44;5082770;28;20024;-78
2023/09/27 03:50:00;;;;;;;8.73;4.32;;;;;;;17.46;55.21;95315.63;5082030;28;20088;-79
2023/09/27 03:52:25;;;;;;;11.00;4.20;;;;;;;17.44;54.99;95313.31;5084376;28;20027;-80
2023/09/27 03:54:51;;;;;;;13.85;4.50;;;;;;;17.53;54.73;95327.13;5081203;28;20483;-79
2023/09/27 03:57:17;;;;;;;9.35;3.78;;;;;;;17.47;54.87;95322.72;5083713;28;20056;-81
2023/09/27 03:59:43;;;;;;;11.27;3.83;;;;;;;17.43;55.00;95324.88;5082922;28;20028;-80
2023/09/27 04:02:08;;;;;;;11.75;4.47;;;;;;;17.44;55.23;95332.00;5080686;28;20402;-83
2023/09/27 04:04:34;;;;;;;8.48;4.00;;;;;;;17.48;55.03;95333.34;5082313;28;20437;-81
2023/09/27 04:06:59;;;;;;;14.52;4.10;;;;;;;17.52;54.52;95331.16;5068058;28;20115;-83
2023/09/27 04:09:25;;;;;;;6.10;3.70;;;;;;;17.56;54.39;95335.78;5055493;28;20063;-82
2023/09/27 04:11:50;;;;;;;8.32;4.30;;;;;;;17.64;54.33;95334.94;5084874;28;20043;-81
2023/09/27 04:14:15;;;;;;;9.57;4.28;;;;;;;17.54;54.42;95325.13;5068027;28;20119;-82
2023/09/27 04:16:42;;;;;;;9.32;4.93;;;;;;;17.48;54.59;95318.69;5067989;28;20561;-85
2023/09/27 04:19:08;;;;;;;8.65;5.03;;;;;;;17.55;54.48;95337.00;5086227;28;20513;-79
2023/09/27 04:21:33;;;;;;;8.98;4.93;;;;;;;17.48;54.91;95341.69;5069783;28;20036;-79
2023/09/27 04:23:59;;;;;;;10.07;5.43;;;;;;;17.43;54.93;95328.47;5088404;28;20084;-80
2023/09/27 04:26:25;;;;;;;10.50;4.93;;;;;;;17.51;54.97;95337.19;5069924;28;20020;-80
2023/09/27 04:28:52;;;;;;;8.80;4.57;;;;;;;17.44;54.88;95332.78;5086695;28;20075;-80
2023/09/27 04:31:17;;;;;;;8.18;4.50;;;;;;;17.43;55.13;95344.34;5069882;28;20119;-80
2023/09/27 04:33:44;;;;;;;11.27;4.57;;;;;;;17.45;54.77;95336.31;5086011;28;20103;-80
2023/09/27 04:36:17;;;;;;;12.35;4.38;;;;;;;17.42;54.90;95337.25;5070198;28;20024;-80
2023/09/27 04:38:44;;;;;;;6.75;3.70;;;;;;;17.45;54.92;95342.66;5070262;28;20111;-78
2023/09/27 04:41:09;;;;;;;8.35;4.43;;;;;;;17.45;54.93;95348.19;5086837;28;20036;-78
2023/09/27 04:43:35;;;;;;;9.18;4.07;;;;;;;17.45;54.55;95337.09;5086799;28;20099;-79
2023/09/27 04:46:00;;;;;;;12.15;4.30;;;;;;;17.47;54.86;95350.50;5086363;28;20374;-78
2023/09/27 04:48:26;;;;;;;10.05;4.40;;;;;;;17.47;54.64;95345.72;5086313;28;20032;-78
2023/09/27 04:50:51;;;;;;;10.98;4.07;;;;;;;17.56;54.39;95352.47;5068909;28;20032;-79
2023/09/27 04:53:16;;;;;;;12.77;4.47;;;;;;;17.55;54.65;95351.69;5069104;28;20113;-80
2023/09/27 04:55:45;;;;;;;12.50;4.15;;;;;;;17.54;54.61;95358.47;5069282;28;20020;-80
2023/09/27 04:58:10;;;;;;;9.75;4.28;;;;;;;17.54;54.48;95352.91;5086268;28;20020;-76
2023/09/27 05:00:36;;;;;;;7.75;4.60;;;;;;;17.61;54.48;95347.03;5085796;28;20032;-81
2023/09/27 05:03:02;;;;;;;10.88;4.03;;;;;;;17.67;54.46;95359.03;5086608;28;20407;-79
2023/09/27 05:05:27;;;;;;;9.63;4.00;;;;;;;17.75;54.04;95357.47;5087232;28;20016;-80
2023/09/27 05:07:53;;;;;;;9.38;4.22;;;;;;;17.72;54.29;95349.28;5086343;28;20042;-81
2023/09/27 05:10:19;;;;;;;9.90;4.20;;;;;;;17.70;54.11;95363.63;5086197;28;20035;-82
2023/09/27 05:12:44;;;;;;;9.75;4.80;;;;;;;17.80;53.94;95350.47;5068075;28;20909;-81
2023/09/27 05:15:10;;;;;;;9.73;4.70;;;;;;;17.85;54.15;95352.59;5085098;28;20024;-82
2023/09/27 05:17:35;;;;;;;6.80;4.68;;;;;;;17.91;53.70;95361.06;5068532;28;20055;-84
2023/09/27 05:20:04;;;;;;;9.73;4.53;;;;;;;17.95;53.67;95356.06;5069422;28;20050;-83
2023/09/27 05:22:30;;;;;;;10.45;4.25;;;;;;;18.02;53.37;95355.72;5068951;28;20510;-80
2023/09/27 05:24:55;;;;;;;10.32;4.88;;;;;;;18.09;53.38;95346.25;5068825;28;20062;-82
2023/09/27 05:27:21;;;;;;;11.63;5.25;;;;;;;18.05;53.68;95361.09;5085153;28;20056;-82
2023/09/27 05:29:46;;;;;;;10.73;4.25;;;;;;;18.08;53.38;95351.03;5068308;28;20406;-81
2023/09/27 05:32:12;;;;;;;8.98;4.53;;;;;;;18.02;53.80;95359.28;5068733;28;20038;-83
2023/09/27 05:34:37;;;;;;;10.50;5.20;;;;;;;18.13;53.48;95361.50;5068069;28;20537;-82
2023/09/27 05:37:03;;;;;;;8.25;4.68;;;;;;;18.07;53.50;95363.41;5085886;28;20028;-82
2023/09/27 05:39:28;;;;;;;11.60;5.22;;;;;;;18.15;53.41;95356.22;5084878;28;20123;-81
2023/09/27 05:41:54;;;;;;;12.90;5.32;;;;;;;18.23;53.56;95359.41;5085885;28;20031;-82
2023/09/27 05:44:20;;;;;;;7.43;4.82;;;;;;;18.29;53.31;95363.84;5068111;28;20020;-81
2023/09/27 05:46:45;;;;;;;10.73;6.20;;;;;;;18.32;53.06;95359.34;5068134;28;20093;-81
2023/09/27 05:49:11;;;;;;;10.63;4.45;;;;;;;18.37;53.22;95361.47;5085505;28;20178;-80
2023/09/27 05:51:37;;;;;;;7.75;4.50;;;;;;;18.47;52.90;95364.94;5085521;28;20027;-81
2023/09/27 05:54:03;;;;;;;13.75;4.68;;;;;;;18.52;52.88;95370.59;5085230;28;20603;-81
2023/09/27 05:56:28;;;;;;;8.68;4.40;;;;;;;18.56;52.63;95359.25;5084549;28;20088;-81
2023/09/27 05:58:54;;;;;;;9.38;4.32;;;;;;;18.63;52.82;95366.47;5086978;28;20099;-81
2023/09/27 06:01:19;;;;;;;9.73;4.50;;;;;;;18.64;52.75;95356.84;5067174;28;20048;-82
2023/09/27 06:03:48;;;;;;;8.60;4.15;;;;;;;18.71;52.43;95364.88;5068294;28;20500;-82
2023/09/27 06:06:13;;;;;;;7.22;4.70;;;;;;;18.76;51.69;95370.53;5067882;28;20098;-82
2023/09/27 06:08:40;;;;;;;9.75;4.28;;;;;;;18.77;52.28;95371.31;5071076;28;20020;-82
2023/09/27 06:11:05;;;;;;;9.88;4.45;;;;;;;18.81;52.26;95366.31;5087693;28;20073;-82
2023/09/27 06:13:31;;;;;;;9.90;4.50;;;;;;;18.97;51.70;95370.59;5086732;28;20027;-81
2023/09/27 06:15:58;;;;;;;8.07;4.45;;;;;;;19.08;51.08;95370.78;5087347;28;20024;-80
2023/09/27 06:18:24;;;;;;;11.32;5.43;;;;;;;19.04;51.02;95370.25;5084300;28;20039;-82
2023/09/27 06:20:52;;;;;;;9.27;4.40;;;;;;;19.16;50.70;95368.41;5085275;28;20028;-81
2023/09/27 06:23:19;;;;;;;12.18;4.15;;;;;;;19.23;50.52;95370.78;5084923;28;20095;-81
2023/09/27 06:25:46;;;;;;;9.10;4.10;;;;;;;19.30;50.44;95379.50;5084276;28;20028;-81
2023/09/27 06:28:13;;;;;;;10.00;4.63;;;;;;;19.33;50.25;95375.75;5084153;28;20043;-81
2023/09/27 06:30:40;;;;;;;9.30;4.13;;;;;;;19.29;49.53;95366.06;5083645;28;20115;-81
2023/09/27 06:33:06;;;;;;;9.35;4.47;;;;;;;19.34;49.84;95380.09;5086326;28;20055;-82
2023/09/27 06:35:32;;;;;;;9.85;4.22;;;;;;;19.41;49.69;95381.69;5084022;28;20433;-82
2023/09/27 06:38:00;;;;;;;9.93;4.10;;;;;;;19.45;49.83;95385.06;5086824;28;20093;-82
2023/09/27 06:40:26;;;;;;;11.68;4.07;;;;;;;19.49;50.01;95387.63;5084151;28;20016;-82
2023/09/27 06:42:52;;;;;;;9.80;4.13;;;;;;;19.54;49.39;95392.53;5067614;28;20026;-81
2023/09/27 06:45:17;;;;;;;8.85;3.90;;;;;;;19.61;49.48;95384.56;5067674;28;20081;-82
2023/09/27 06:47:46;;;;;;;8.65;4.07;;;;;;;19.67;49.59;95379.06;5066688;28;20062;-81
2023/09/27 06:50:13;;;;;;;10.85;4.10;;;;;;;19.73;49.69;95379.91;5084399;28;20506;-82
2023/09/27 06:52:40;;;;;;;8.98;3.85;;;;;;;19.82;49.14;95385.34;5083832;28;20042;-81
2023/09/27 06:55:13;;;;;;;8.75;4.38;;;;;;;19.90;49.20;95385.72;5067708;28;20035;-82
2023/09/27 06:57:42;;;;;;;8.45;4.25;;;;;;;19.99;49.08;95390.38;5067654;28;20557;-82
2023/09/27 07:00:24;;;;;;;8.48;4.15;;;;;;;20.08;48.59;95382.63;5084520;28;20093;-82
2023/09/27 07:02:50;;;;;;;9.02;3.97;;;;;;;20.27;48.36;95387.94;5084175;28;20032;-80
2023/09/27 07:05:16;;;;;;;9.18;4.40;;;;;;;20.31;47.97;95389.25;5066913;28;20488;-81
2023/09/27 07:07:42;;;;;;;6.05;3.60;;;;;;;20.38;47.83;95388.81;5084318;28;20024;-81
2023/09/27 07:10:08;;;;;;;10.05;4.57;;;;;;;20.50;47.99;95388.97;5067071;28;20024;-81
2023/09/27 07:12:37;;;;;;;9.48;4.63;;;;;;;20.60;47.20;95393.16;5083167;28;20031;-82
2023/09/27 07:15:09;;;;;;;8.93;3.92;;;;;;;20.70;47.32;95388.91;5067282;28;20040;-81
2023/09/27 07:17:35;;;;;;;10.13;4.20;;;;;;;20.80;46.70;95384.69;5084092;28;20031;-81
2023/09/27 07:20:03;;;;;;;6.70;3.92;;;;;;;20.98;46.31;95388.41;5067538;28;20396;-81
2023/09/27 07:22:31;;;;;;;11.00;4.38;;;;;;;21.09;46.25;95391.31;5067060;28;20078;-80
2023/09/27 07:24:56;;;;;;;6.38;3.08;;;;;;;21.14;46.03;95387.78;5084892;28;20051;-81
2023/09/27 07:27:21;;;;;;;11.75;4.20;;;;;;;21.28;45.57;95394.53;5083844;28;20078;-82
2023/09/27 07:29:48;;;;;;;13.52;4.57;;;;;;;21.32;45.04;95390.25;5083823;28;20067;-80
2023/09/27 07:32:15;;;;;;;9.32;3.50;;;;;;;21.50;43.97;95399.53;5083968;28;20035;-83
2023/09/27 07:34:41;;;;;;;8.15;3.50;;;;;;;21.57;44.00;95399.09;5083060;28;20067;-81
2023/09/27 07:37:08;;;;;;;10.80;3.90;;;;;;;21.68;43.86;95399.16;5084156;28;20051;-82
2023/09/27 07:39:33;;;;;;;8.30;4.28;;;;;;;21.77;43.54;95407.34;5086938;28;20036;-82
2023/09/27 07:41:59;;;;;;;10.60;3.75;;;;;;;21.83;43.36;95396.94;5070866;28;20039;-82
2023/09/27 07:44:26;;;;;;;10.52;3.17;;;;;;;21.95;42.76;95404.13;5087257;28;20030;-82
2023/09/27 07:46:51;;;;;;;7.18;3.28;;;;;;;22.04;42.29;95394.78;5087965;28;20489;-81
2023/09/27 07:49:17;;;;;;;9.77;3.55;;;;;;;22.15;42.17;95402.50;5088667;28;20024;-83
2023/09/27 07:51:42;;;;;;;10.25;3.50;;;;;;;22.29;42.22;95397.97;5071055;28;20056;-82
2023/09/27 07:54:08;;;;;;;7.85;3.20;;;;;;;22.41;41.81;95394.69;5087614;28;20031;-81
2023/09/27 07:56:39;;;;;;;13.02;3.33;;;;;;;22.59;41.33;95395.50;5087545;28;20031;-82
2023/09/27 07:59:05;;;;;;;5.32;2.65;;;;;;;22.70;40.72;95396.28;5071722;28;20162;-81
2023/09/27 08:01:31;;;;;;;7.88;2.63;;;;;;;22.83;40.13;95384.63;5069750;28;20043;-82
2023/09/27 08:04:05;;;;;;;12.85;4.47;;;;;;;22.96;40.12;95389.75;5088747;28;20084;-82
2023/09/27 08:06:31;;;;;;;15.48;6.13;;;;;;;23.14;39.52;95394.09;5070814;28;20032;-83
2023/09/27 08:08:57;;;;;;;8.85;3.53;;;;;;;23.24;39.01;95386.97;5070373;28;20039;-83
2023/09/27 08:11:23;;;;;;;6.97;3.13;;;;;;;23.35;39.00;95389.78;5087133;28;20478;-82
2023/09/27 08:13:51;;;;;;;6.35;3.30;;;;;;;23.47;38.73;95394.09;5086796;28;20042;-82
2023/09/27 08:16:17;;;;;;;9.07;3.10;;;;;;;23.55;38.22;95378.28;5087153;28;20024;-82
2023/09/27 08:18:43;;;;;;;9.40;3.17;;;;;;;23.68;38.41;95383.38;5086822;28;20027;-82
2023/09/27 08:21:09;;;;;;;7.38;3.15;;;;;;;23.85;38.41;95383.34;5088636;28;20059;-82
2023/09/27 08:23:34;;;;;;;10.75;3.58;;;;;;;24.08;38.13;95400.91;5086500;28;20566;-82
2023/09/27 08:26:00;;;;;;;9.25;3.22;;;;;;;24.30;37.25;95386.00;5087369;28;20024;-82
2023/09/27 08:28:26;;;;;;;5.93;3.40;;;;;;;24.49;37.51;95389.81;5086325;28;20101;-83
2023/09/27 08:30:51;;;;;;;11.05;3.22;;;;;;;24.69;36.98;95380.22;5086873;28;20038;-83
2023/09/27 08:33:16;;;;;;;8.63;2.92;;;;;;;24.92;35.42;95382.91;5086977;28;20024;-82
2023/09/27 08:35:42;;;;;;;8.88;3.47;;;;;;;25.14;35.64;95377.91;5069446;28;20031;-83
2023/09/27 08:38:08;;;;;;;8.15;3.50;;;;;;;25.39;35.73;95375.16;5086826;28;20525;-82
2023/09/27 08:40:34;;;;;;;5.72;3.28;;;;;;;25.51;35.62;95382.19;5068889;28;20064;-83
2023/09/27 08:43:00;;;;;;;10.55;3.97;;;;;;;25.69;35.15;95386.38;5086834;28;20551;-83
2023/09/27 08:45:26;;;;;;;12.73;3.88;;;;;;;25.88;34.74;95395.69;5069226;28;20501;-82
2023/09/27 08:47:53;;;;;;;11.07;3.42;;;;;;;25.94;34.21;95384.38;5069775;28;20123;-82
2023/09/27 08:50:19;;;;;;;10.05;3.70;;;;;;;26.15;34.06;95390.28;5068798;28;20463;-82
2023/09/27 08:52:48;;;;;;;7.20;3.33;;;;;;;26.30;33.76;95384.22;5087909;28;20032;-82
2023/09/27 08:55:15;;;;;;;10.00;3.20;;;;;;;26.50;32.85;95392.22;5070294;28;20036;-82
2023/09/27 08:57:51;;;;;;;10.88;3.30;;;;;;;26.63;32.60;95389.47;5086207;28;20020;-82
2023/09/27 09:00:22;;;;;;;9.93;3.38;;;;;;;26.79;32.74;95395.44;5086375;28;20056;-84
2023/09/27 09:02:52;;;;;;;5.72;3.25;;;;;;;26.96;32.51;95370.56;5069980;28;20050;-84
2023/09/27 09:05:18;;;;;;;15.07;4.53;;;;;;;27.31;31.95;95394.16;5086693;28;20026;-82
2023/09/27 09:07:44;;;;;;;8.90;4.20;;;;;;;27.55;31.33;95391.19;5086449;28;20115;-82
2023/09/27 09:10:14;;;;;;;6.40;3.25;;;;;;;27.66;31.23;95390.25;5085260;28;20032;-82
2023/09/27 09:12:43;;;;;;;7.93;3.17;;;;;;;27.70;31.02;95388.66;5070013;28;20020;-83
2023/09/27 09:15:29;;;;;;;4.72;2.90;;;;;;;27.53;31.12;95394.56;5088671;28;20038;-81
2023/09/27 09:17:57;;;;;;;7.22;3.28;;;;;;;28.07;30.33;95378.47;5070836;28;20097;-82
2023/09/27 09:20:28;;;;;;;7.85;3.20;;;;;;;28.55;29.79;95380.09;5070033;28;20089;-83
2023/09/27 09:22:57;;;;;;;8.20;3.10;;;;;;;28.96;29.53;95380.78;5086108;28;20031;-83
2023/09/27 09:25:27;;;;;;;8.52;2.75;;;;;;;29.33;28.81;95391.75;5086219;28;20448;-84
2023/09/27 09:28:08;;;;;;;5.78;3.35;;;;;;;29.79;27.92;95372.34;5085268;28;20036;-82
2023/09/27 09:30:37;;;;;;;6.97;2.92;;;;;;;30.29;27.64;95378.75;5069679;28;20058;-83
2023/09/27 09:33:09;;;;;;;3.88;2.55;;;;;;;30.88;26.15;95373.19;5068680;28;20588;-83
2023/09/27 09:35:34;;;;;;;4.03;2.35;;;;;;;31.52;25.57;95379.97;5086232;28;20093;-83
2023/09/27 09:38:03;;;;;;;5.18;2.50;;;;;;;32.22;24.21;95382.22;5085583;28;20024;-82
2023/09/27 09:40:31;;;;;;;7.57;2.33;;;;;;;32.88;23.78;95360.47;5068521;28;20112;-83
2023/09/27 09:42:59;;;;;;;8.23;3.05;;;;;;;33.55;22.90;95362.75;5085883;28;20089;-83
2023/09/27 09:45:24;;;;;;;11.18;2.78;;;;;;;34.44;21.90;95361.03;5085092;28;20079;-82
2023/09/27 09:47:51;;;;;;;6.13;2.22;;;;;;;35.18;21.11;95358.44;5069029;28;20119;-83
2023/09/27 09:50:17;;;;;;;7.95;2.30;;;;;;;36.02;20.20;95369.38;5067964;28;20497;-83
2023/09/27 09:53:01;;;;;;;4.40;2.17;;;;;;;36.89;19.25;95366.63;5085949;28;20023;-83
2023/09/27 09:55:34;;;;;;;5.47;2.17;;;;;;;37.20;18.57;95358.09;5068139;28;20030;-83
2023/09/27 09:58:26;;;;;;;4.70;2.03;;;;;;;37.74;17.52;95362.66;5068726;28;20119;-83
2023/09/27 10:00:53;;;;;;;6.53;2.03;;;;;;;38.21;17.41;95352.28;5068847;28;20028;-83
2023/09/27 10:03:20;;;;;;;6.43;2.15;;;;;;;38.52;16.95;95351.50;5084529;28;20103;-83
2023/09/27 10:05:50;;;;;;;5.78;2.35;;;;;;;38.32;17.33;95355.88;5085689;28;20028;-83
2023/09/27 10:08:16;;;;;;;9.30;2.88;;;;;;;38.54;17.34;95351.66;5084962;28;20028;-82
2023/09/27 10:10:41;;;;;;;7.05;2.20;;;;;;;38.02;17.46;95346.66;5084489;28;20031;-83
2023/09/27 10:13:09;;;;;;;7.93;2.55;;;;;;;38.33;17.15;95340.16;5084776;28;20085;-83
2023/09/27 10:15:35;;;;;;;6.95;2.70;;;;;;;38.49;17.35;95335.50;5085809;28;20032;-83
2023/09/27 10:18:22;;;;;;;5.72;2.20;;;;;;;37.23;18.17;95338.97;5084548;28;20124;-83
2023/09/27 10:21:03;;;;;;;7.10;3.00;;;;;;;37.76;17.74;95331.22;5085854;28;20028;-83
2023/09/27 10:23:46;;;;;;;13.35;3.10;;;;;;;37.55;18.13;95329.06;5084450;28;20422;-83
2023/09/27 10:26:27;;;;;;;9.48;2.70;;;;;;;37.26;18.41;95337.72;5084693;28;20040;-83
2023/09/27 10:29:06;;;;;;;6.32;3.00;;;;;;;38.07;17.71;95331.22;5084202;28;20043;-84
2023/09/27 10:31:32;;;;;;;6.88;2.67;;;;;;;37.63;17.95;95321.03;5086168;28;20043;-83
2023/09/27 10:33:59;;;;;;;10.07;2.88;;;;;;;36.47;19.01;95326.22;5067655;28;20044;-84
2023/09/27 10:36:24;;;;;;;5.70;2.30;;;;;;;35.53;20.13;95324.78;5067494;28;20027;-82
2023/09/27 10:38:50;;;;;;;9.38;3.38;;;;;;;34.80;20.61;95311.84;5084663;28;20056;-83
2023/09/27 10:41:42;;;;;;;7.10;3.20;;;;;;;35.02;20.59;95312.94;5085360;28;20059;-82
2023/09/27 10:44:07;;;;;;;7.90;3.22;;;;;;;35.78;20.30;95307.38;5086568;28;20496;-84
2023/09/27 10:46:43;;;;;;;9.35;2.55;;;;;;;35.39;19.87;95305.16;5067053;28;20120;-84
2023/09/27 10:49:09;;;;;;;6.30;2.70;;;;;;;34.23;21.56;95306.44;5084938;28;20024;-83
2023/09/27 10:51:34;;;;;;;9.65;3.20;;;;;;;33.65;22.04;95312.28;5067325;28;20066;-84
2023/09/27 10:54:00;;;;;;;5.90;3.00;;;;;;;33.26;22.36;95305.34;5067107;28;20072;-83
2023/09/27 10:56:25;;;;;;;6.88;2.55;;;;;;;33.31;22.51;95301.53;5084452;28;20025;-83
2023/09/27 10:58:51;;;;;;;6.55;2.60;;;;;;;33.32;22.62;95296.59;5082837;28;20035;-83
2023/09/27 11:01:21;;;;;;;5.88;3.20;;;;;;;32.69;23.03;95294.66;5084560;28;20107;-83
2023/09/27 11:03:46;;;;;;;6.50;2.67;;;;;;;32.24;23.61;95297.13;5083908;28;20031;-82
2023/09/27 11:06:16;;;;;;;20.73;5.95;;;;;;;33.17;22.66;95292.53;5084839;28;20016;-82
2023/09/27 11:08:41;;;;;;;6.95;3.08;;;;;;;33.68;22.11;95293.28;5084809;28;20073;-84
2023/09/27 11:11:08;;;;;;;16.60;5.68;;;;;;;34.04;21.54;95287.81;5067254;28;20115;-84
2023/09/27 11:13:35;;;;;;;6.85;3.03;;;;;;;34.61;21.49;95286.03;5068156;28;20035;-84
2023/09/27 11:16:08;;;;;;;11.68;4.00;;;;;;;35.29;20.53;95272.91;5071339;28;20111;-84
2023/09/27 11:18:34;;;;;;;8.82;2.90;;;;;;;35.70;19.75;95290.38;5088481;28;20467;-85
2023/09/27 11:21:09;;;;;;;6.82;2.67;;;;;;;36.20;19.59;95278.44;5070907;28;20073;-84
2023/09/27 11:23:53;;;;;;;8.60;3.25;;;;;;;36.44;19.84;95288.09;5071366;28;20628;-84
2023/09/27 11:26:21;;;;;;;7.68;3.15;;;;;;;35.59;20.36;95291.69;5087637;28;20053;-84
2023/09/27 11:28:59;;;;;;;6.20;2.97;;;;;;;34.76;21.77;95277.28;5071155;28;20047;-84
2023/09/27 11:31:28;;;;;;;7.18;3.03;;;;;;;33.95;22.25;95288.50;5070989;28;20054;-84